createdAt,value
2022-09-24T00:01:27.002Z,15.47
2022-09-24T00:03:59.198Z,15.47
2022-09-24T00:06:27.579Z,15.55
2022-09-24T00:08:56.234Z,15.58
2022-09-24T00:11:25.434Z,15.63
2022-09-24T00:13:54.078Z,15.69
2022-09-24T00:16:25.585Z,15.71
2022-09-24T00:18:53.890Z,15.73
2022-09-24T00:21:25.217Z,15.76
2022-09-24T00:23:54.895Z,15.76
2022-09-24T00:26:40.721Z,15.75
2022-09-24T00:29:09.341Z,15.75
2022-09-24T00:31:37.570Z,15.75
2022-09-24T00:34:06.223Z,15.78
2022-09-24T00:36:35.230Z,15.77
2022-09-24T00:39:02.955Z,15.70
2022-09-24T00:41:32.297Z,15.65
2022-09-24T00:44:00.394Z,15.62
2022-09-24T00:46:33.609Z,15.61
2022-09-24T00:49:05.137Z,15.62
2022-09-24T00:51:35.865Z,15.59
2022-09-24T00:54:09.090Z,15.57
2022-09-24T00:56:40.296Z,15.55
2022-09-24T00:59:12.189Z,15.49
2022-09-24T01:01:39.987Z,15.47
2022-09-24T01:04:08.447Z,15.45
2022-09-24T01:06:37.726Z,15.43
2022-09-24T01:09:05.745Z,15.39
2022-09-24T01:11:46.115Z,15.28
2022-09-24T01:14:35.358Z,15.25
2022-09-24T01:17:17.299Z,15.22
2022-09-24T01:20:12.487Z,15.24
2022-09-24T01:22:59.258Z,15.26
2022-09-24T01:25:33.557Z,15.28
2022-09-24T01:28:25.016Z,15.32
2022-09-24T01:31:02.762Z,15.29
2022-09-24T01:33:33.464Z,15.28
2022-09-24T01:36:08.193Z,15.29
2022-09-24T01:38:41.753Z,15.29
2022-09-24T01:41:13.586Z,15.30
2022-09-24T01:43:41.239Z,15.28
2022-09-24T01:46:12.854Z,15.27
2022-09-24T01:48:41.981Z,15.20
2022-09-24T01:51:15.050Z,15.18
2022-09-24T01:53:47.414Z,15.17
2022-09-24T01:56:22.135Z,15.13
2022-09-24T01:58:56.518Z,15.12
2022-09-24T02:01:31.459Z,15.11
2022-09-24T02:04:05.659Z,15.13
2022-09-24T02:06:38.461Z,15.15
2022-09-24T02:09:06.079Z,15.13
2022-09-24T02:11:37.613Z,15.15
2022-09-24T02:14:10.178Z,15.14
2022-09-24T02:16:45.301Z,15.15
2022-09-24T02:19:16.875Z,15.15
2022-09-24T02:21:46.465Z,15.15
2022-09-24T02:24:17.841Z,15.14
2022-09-24T02:26:46.171Z,15.13
2022-09-24T02:29:14.285Z,15.03
2022-09-24T02:31:47.814Z,14.93
2022-09-24T02:34:20.834Z,14.92
2022-09-24T02:36:49.851Z,14.94
2022-09-24T02:39:18.308Z,14.93
2022-09-24T02:41:48.378Z,14.96
2022-09-24T02:44:16.452Z,14.95
2022-09-24T02:46:46.165Z,14.89
2022-09-24T02:49:15.483Z,14.90
2022-09-24T02:51:43.661Z,14.89
2022-09-24T02:54:12.099Z,14.88
2022-09-24T02:56:39.766Z,14.85
2022-09-24T02:59:08.203Z,14.82
2022-09-24T03:01:36.995Z,14.84
2022-09-24T03:04:06.333Z,14.81
2022-09-24T03:06:34.478Z,14.73
2022-09-24T03:09:02.208Z,14.73
2022-09-24T03:11:29.938Z,14.76
2022-09-24T03:13:57.696Z,14.77
2022-09-24T03:16:25.331Z,14.69
2022-09-24T03:18:52.970Z,14.68
2022-09-24T03:21:23.243Z,14.70
2022-09-24T03:23:51.268Z,14.72
2022-09-24T03:26:18.903Z,14.69
2022-09-24T03:28:48.478Z,14.63
2022-09-24T03:31:15.188Z,14.60
2022-09-24T03:33:45.609Z,14.57
2022-09-24T03:36:15.996Z,14.59
2022-09-24T03:38:46.884Z,14.64
2022-09-24T03:41:15.229Z,14.63
2022-09-24T03:43:42.892Z,14.64
2022-09-24T03:46:12.483Z,14.59
2022-09-24T03:48:42.663Z,14.60
2022-09-24T03:51:12.244Z,14.62
2022-09-24T03:53:40.343Z,14.64
2022-09-24T03:56:11.804Z,14.65
2022-09-24T03:58:40.179Z,14.63
2022-09-24T04:01:09.993Z,14.52
2022-09-24T04:03:38.371Z,14.53
2022-09-24T04:06:07.165Z,14.50
2022-09-24T04:08:34.770Z,14.48
2022-09-24T04:11:02.373Z,14.44
2022-09-24T04:13:31.497Z,14.47
2022-09-24T04:16:02.859Z,14.46
2022-09-24T04:18:31.543Z,14.45
2022-09-24T04:21:01.327Z,14.38
2022-09-24T04:23:31.315Z,14.39
2022-09-24T04:26:00.630Z,14.39
2022-09-24T04:28:28.232Z,14.38
2022-09-24T04:30:57.469Z,14.37
2022-09-24T04:33:25.096Z,14.39
2022-09-24T04:35:52.702Z,14.40
2022-09-24T04:38:21.143Z,14.37
2022-09-24T04:40:50.151Z,14.30
2022-09-24T04:43:19.039Z,14.34
2022-09-24T04:45:47.378Z,14.31
2022-09-24T04:48:16.292Z,14.33
2022-09-24T04:50:46.350Z,14.37
2022-09-24T04:53:14.775Z,14.39
2022-09-24T04:55:42.631Z,14.39
2022-09-24T04:58:10.890Z,14.31
2022-09-24T05:00:38.614Z,14.28
2022-09-24T05:03:06.458Z,14.26
2022-09-24T05:05:36.358Z,14.22
2022-09-24T05:08:04.722Z,14.18
2022-09-24T05:10:33.496Z,14.13
2022-09-24T05:13:02.060Z,14.04
2022-09-24T05:15:29.627Z,14.05
2022-09-24T05:17:57.192Z,14.06
2022-09-24T05:20:25.270Z,14.08
2022-09-24T05:22:54.209Z,14.06
2022-09-24T05:25:23.340Z,14.00
2022-09-24T05:27:51.212Z,14.00
2022-09-24T05:30:20.617Z,13.96
2022-09-24T05:32:51.783Z,13.90
2022-09-24T05:35:19.734Z,13.91
2022-09-24T05:37:49.454Z,13.82
2022-09-24T05:40:32.519Z,13.79
2022-09-24T05:43:01.111Z,13.85
2022-09-24T05:45:29.129Z,13.88
2022-09-24T05:47:56.757Z,13.82
2022-09-24T05:50:24.384Z,13.84
2022-09-24T05:52:52.007Z,13.82
2022-09-24T05:55:20.883Z,13.78
2022-09-24T05:57:48.940Z,13.76
2022-09-24T06:00:16.765Z,13.80
2022-09-24T06:02:44.501Z,13.85
2022-09-24T06:05:12.830Z,13.88
2022-09-24T06:07:40.413Z,13.91
2022-09-24T06:10:09.115Z,13.96
2022-09-24T06:12:37.983Z,13.97
2022-09-24T06:15:06.223Z,14.04
2022-09-24T06:17:33.801Z,14.09
2022-09-24T06:20:02.390Z,14.08
2022-09-24T06:22:30.108Z,14.13
2022-09-24T06:24:57.812Z,14.07
2022-09-24T06:27:25.399Z,14.07
2022-09-24T06:29:54.534Z,14.09
2022-09-24T06:32:24.273Z,14.14
2022-09-24T06:34:56.816Z,14.19
2022-09-24T06:37:26.529Z,14.24
2022-09-24T06:39:54.101Z,14.26
2022-09-24T06:42:21.633Z,14.16
2022-09-24T06:44:49.275Z,14.12
2022-09-24T06:47:18.207Z,14.12
2022-09-24T06:49:45.868Z,14.14
2022-09-24T06:52:13.414Z,14.19
2022-09-24T06:54:41.007Z,14.21
2022-09-24T06:57:08.600Z,14.21
2022-09-24T06:59:36.180Z,14.25
2022-09-24T07:02:03.816Z,14.29
2022-09-24T07:04:32.805Z,14.28
2022-09-24T07:07:17.693Z,14.34
2022-09-24T07:09:45.227Z,14.38
2022-09-24T07:12:12.794Z,14.41
2022-09-24T07:14:40.355Z,14.46
2022-09-24T07:17:07.910Z,14.57
2022-09-24T07:19:38.225Z,14.62
2022-09-24T07:22:05.801Z,14.58
2022-09-24T07:24:33.653Z,14.62
2022-09-24T07:27:01.402Z,14.57
2022-09-24T07:29:28.969Z,14.60
2022-09-24T07:31:56.603Z,14.57
2022-09-24T07:34:26.618Z,14.61
2022-09-24T07:36:56.897Z,14.61
2022-09-24T07:39:24.691Z,14.64
2022-09-24T07:41:53.036Z,14.71
2022-09-24T07:44:21.268Z,14.77
2022-09-24T07:46:49.480Z,14.76
2022-09-24T07:49:17.418Z,14.75
2022-09-24T07:51:45.994Z,14.80
2022-09-24T07:54:17.158Z,14.74
2022-09-24T07:56:44.963Z,14.67
2022-09-24T07:59:12.898Z,14.71
2022-09-24T08:01:40.776Z,14.82
2022-09-24T08:04:08.754Z,14.72
2022-09-24T08:06:39.488Z,14.80
2022-09-24T08:09:08.229Z,14.83
2022-09-24T08:11:37.131Z,14.86
2022-09-24T08:14:05.019Z,14.85
2022-09-24T08:16:32.769Z,14.89
2022-09-24T08:19:00.953Z,14.91
2022-09-24T08:21:29.075Z,14.92
2022-09-24T08:23:58.934Z,14.96
2022-09-24T08:26:26.551Z,14.88
2022-09-24T08:28:55.757Z,14.93
2022-09-24T08:31:23.389Z,14.90
2022-09-24T08:33:51.350Z,14.72
2022-09-24T08:36:20.541Z,14.71
2022-09-24T08:38:48.271Z,14.64
2022-09-24T08:41:31.085Z,14.66
2022-09-24T08:44:06.970Z,14.71
2022-09-24T08:46:57.673Z,14.74
2022-09-24T08:49:29.061Z,14.83
2022-09-24T08:52:04.582Z,14.85
2022-09-24T08:54:35.894Z,14.90
2022-09-24T08:57:11.802Z,14.94
2022-09-24T08:59:45.689Z,14.96
2022-09-24T09:02:29.632Z,15.02
2022-09-24T09:05:04.998Z,15.00
2022-09-24T09:07:41.417Z,15.05
2022-09-24T09:10:13.177Z,15.07
2022-09-24T09:12:43.644Z,15.08
2022-09-24T09:15:15.551Z,15.08
2022-09-24T09:17:48.882Z,15.12
2022-09-24T09:20:20.268Z,15.16
2022-09-24T09:22:51.020Z,15.25
2022-09-24T09:25:23.619Z,15.27
2022-09-24T09:27:54.131Z,15.31
2022-09-24T09:30:23.346Z,15.36
2022-09-24T09:33:05.822Z,15.37
2022-09-24T09:35:39.892Z,15.36
2022-09-24T09:38:19.088Z,15.39
2022-09-24T09:40:54.176Z,15.42
2022-09-24T09:43:22.002Z,15.38
2022-09-24T09:46:02.079Z,15.31
2022-09-24T09:48:40.336Z,15.27
2022-09-24T09:51:21.851Z,15.33
2022-09-24T09:53:57.297Z,15.40
2022-09-24T09:56:28.549Z,15.39
2022-09-24T09:59:07.223Z,15.38
2022-09-24T10:01:40.523Z,15.41
2022-09-24T10:04:28.881Z,15.47
2022-09-24T10:07:06.510Z,15.47
2022-09-24T10:09:34.567Z,15.52
2022-09-24T10:12:17.271Z,15.56
2022-09-24T10:14:45.949Z,15.62
2022-09-24T10:17:19.175Z,15.68
2022-09-24T10:19:50.660Z,15.66
2022-09-24T10:22:25.346Z,15.71
2022-09-24T10:24:54.217Z,15.72
2022-09-24T10:27:28.417Z,15.83
2022-09-24T10:30:15.148Z,15.94
2022-09-24T10:32:45.417Z,15.91
2022-09-24T10:35:26.582Z,15.82
2022-09-24T10:37:55.589Z,15.81
2022-09-24T10:40:28.643Z,15.88
2022-09-24T10:42:58.119Z,15.93
2022-09-24T10:45:39.017Z,15.99
2022-09-24T10:48:16.724Z,16.03
2022-09-24T10:50:51.825Z,16.05
2022-09-24T10:53:29.294Z,15.95
2022-09-24T10:56:04.232Z,15.86
2022-09-24T10:58:53.117Z,15.88
2022-09-24T11:01:28.535Z,15.90
2022-09-24T11:04:24.424Z,15.88
2022-09-24T11:07:09.770Z,15.94
2022-09-24T11:09:48.267Z,15.99
2022-09-24T11:12:30.138Z,16.01
2022-09-24T11:15:14.145Z,16.08
2022-09-24T11:17:55.371Z,16.09
2022-09-24T11:20:33.857Z,16.14
2022-09-24T11:23:18.578Z,16.10
2022-09-24T11:25:55.510Z,15.98
2022-09-24T11:28:42.381Z,16.01
2022-09-24T11:31:18.697Z,16.04
2022-09-24T11:34:07.300Z,16.10
2022-09-24T11:36:49.370Z,16.12
2022-09-24T11:39:35.017Z,16.11
2022-09-24T11:42:16.646Z,15.99
2022-09-24T11:45:06.788Z,16.04
2022-09-24T11:47:48.038Z,16.15
2022-09-24T11:50:29.979Z,16.16
2022-09-24T11:53:03.260Z,16.21
2022-09-24T11:55:38.747Z,16.22
2022-09-24T11:58:16.521Z,16.19
2022-09-24T12:00:50.402Z,16.20
2022-09-24T12:03:26.138Z,16.21
2022-09-24T12:06:00.765Z,16.22
2022-09-24T12:08:35.875Z,16.31
2022-09-24T12:11:09.982Z,16.37
2022-09-24T12:13:42.127Z,16.44
2022-09-24T12:16:14.395Z,16.42
2022-09-24T12:18:50.426Z,16.33
2022-09-24T12:21:23.339Z,16.35
2022-09-24T12:24:02.235Z,16.43
2022-09-24T12:26:31.117Z,16.43
2022-09-24T12:29:23.791Z,16.40
2022-09-24T12:32:17.385Z,16.33
2022-09-24T12:34:52.110Z,16.15
2022-09-24T12:37:26.373Z,16.15
2022-09-24T12:40:02.267Z,16.18
2022-09-24T12:42:37.642Z,16.16
2022-09-24T12:45:08.847Z,16.23
2022-09-24T12:47:46.485Z,16.31
2022-09-24T12:50:22.314Z,16.36
2022-09-24T12:52:50.363Z,16.35
2022-09-24T12:55:25.201Z,16.31
2022-09-24T12:57:56.079Z,16.25
2022-09-24T13:00:40.762Z,16.25
2022-09-24T13:03:34.941Z,16.29
2022-09-24T13:06:04.573Z,16.24
2022-09-24T13:08:39.152Z,16.22
2022-09-24T13:11:26.950Z,16.21
2022-09-24T13:14:00.938Z,16.19
2022-09-24T13:16:29.173Z,16.18
2022-09-24T13:19:01.199Z,16.07
2022-09-24T13:21:30.730Z,16.10
2022-09-24T13:24:11.850Z,15.85
2022-09-24T13:26:39.491Z,15.81
2022-09-24T13:29:24.298Z,15.77
2022-09-24T13:32:02.721Z,15.63
2022-09-24T13:34:33.381Z,15.71
2022-09-24T13:37:05.189Z,15.71
2022-09-24T13:39:41.760Z,15.81
2022-09-24T13:42:19.016Z,15.87
2022-09-24T13:44:49.995Z,15.90
2022-09-24T13:47:28.361Z,15.92
2022-09-24T13:50:09.380Z,15.94
2022-09-24T13:52:40.899Z,15.99
2022-09-24T13:55:18.326Z,15.89
2022-09-24T13:57:47.699Z,15.79
2022-09-24T14:00:19.785Z,15.63
2022-09-24T14:02:58.311Z,15.70
2022-09-24T14:05:29.090Z,15.61
2022-09-24T14:08:04.542Z,15.65
2022-09-24T14:10:33.095Z,15.65
2022-09-24T14:13:02.368Z,15.58
2022-09-24T14:15:30.181Z,15.64
2022-09-24T14:17:59.086Z,15.58
2022-09-24T14:20:34.680Z,15.57
2022-09-24T14:23:05.594Z,15.62
2022-09-24T14:25:35.448Z,15.64
2022-09-24T14:28:04.814Z,15.69
2022-09-24T14:30:35.283Z,15.71
2022-09-24T14:33:05.801Z,15.74
2022-09-24T14:35:36.088Z,15.77
2022-09-24T14:38:08.659Z,15.78
2022-09-24T14:40:45.363Z,15.75
2022-09-24T14:43:19.533Z,15.77
2022-09-24T14:45:49.665Z,15.68
2022-09-24T14:48:28.378Z,15.65
2022-09-24T14:50:59.906Z,15.61
2022-09-24T14:53:29.799Z,15.61
2022-09-24T14:55:57.842Z,15.64
2022-09-24T14:58:34.852Z,15.55
2022-09-24T15:01:05.644Z,15.56
2022-09-24T15:03:40.019Z,15.57
2022-09-24T15:06:20.425Z,15.58
2022-09-24T15:08:59.045Z,15.54
2022-09-24T15:11:28.667Z,15.54
2022-09-24T15:14:03.392Z,15.40
2022-09-24T15:16:33.920Z,15.41
2022-09-24T15:19:19.653Z,15.36
2022-09-24T15:21:49.969Z,15.42
2022-09-24T15:24:18.299Z,15.45
2022-09-24T15:26:48.040Z,15.45
2022-09-24T15:29:20.892Z,15.49
2022-09-24T15:31:48.757Z,15.42
2022-09-24T15:34:19.934Z,15.35
2022-09-24T15:36:51.116Z,15.35
2022-09-24T15:39:20.892Z,15.37
2022-09-24T15:41:48.506Z,15.40
2022-09-24T15:44:21.763Z,15.42
2022-09-24T15:46:51.016Z,15.48
2022-09-24T15:49:22.147Z,15.54
2022-09-24T15:51:55.871Z,15.56
2022-09-24T15:54:24.818Z,15.58
2022-09-24T15:56:52.983Z,15.61
2022-09-24T15:59:21.606Z,15.60
2022-09-24T16:01:51.941Z,15.57
2022-09-24T16:04:19.619Z,15.58
2022-09-24T16:06:47.246Z,15.55
2022-09-24T16:09:16.286Z,15.38
2022-09-24T16:11:43.992Z,15.26
2022-09-24T16:14:11.912Z,15.24
2022-09-24T16:16:39.749Z,15.20
2022-09-24T16:19:08.384Z,15.22
2022-09-24T16:21:36.347Z,15.24
2022-09-24T16:24:04.213Z,15.24
2022-09-24T16:26:34.334Z,15.15
2022-09-24T16:29:02.907Z,15.19
2022-09-24T16:31:30.933Z,15.20
2022-09-24T16:33:58.597Z,15.21
2022-09-24T16:36:27.275Z,15.22
2022-09-24T16:38:54.895Z,15.23
2022-09-24T16:41:22.518Z,15.26
2022-09-24T16:43:56.126Z,15.29
2022-09-24T16:46:24.267Z,15.35
2022-09-24T16:48:51.953Z,15.21
2022-09-24T16:51:19.752Z,15.22
2022-09-24T16:53:49.020Z,15.25
2022-09-24T16:56:18.763Z,15.26
2022-09-24T16:58:47.802Z,15.28
2022-09-24T17:01:19.996Z,15.26
2022-09-24T17:03:51.887Z,15.24
2022-09-24T17:06:20.468Z,15.04
2022-09-24T17:09:05.793Z,14.90
2022-09-24T17:11:33.975Z,14.85
2022-09-24T17:14:01.918Z,14.83
2022-09-24T17:16:31.383Z,14.92
2022-09-24T17:18:59.386Z,14.93
2022-09-24T17:21:27.276Z,14.89
2022-09-24T17:23:54.942Z,14.90
2022-09-24T17:26:23.433Z,14.91
2022-09-24T17:28:53.716Z,14.94
2022-09-24T17:31:24.029Z,14.96
2022-09-24T17:33:57.172Z,15.01
2022-09-24T17:36:26.040Z,14.98
2022-09-24T17:38:53.739Z,14.95
2022-09-24T17:41:22.856Z,14.88
2022-09-24T17:43:51.344Z,14.90
2022-09-24T17:46:21.656Z,14.89
2022-09-24T17:48:51.185Z,14.87
2022-09-24T17:51:22.941Z,14.87
2022-09-24T17:53:52.132Z,14.85
2022-09-24T17:56:21.149Z,14.81
2022-09-24T17:58:49.121Z,14.75
2022-09-24T18:01:20.158Z,14.70
2022-09-24T18:03:49.575Z,14.63
2022-09-24T18:06:17.109Z,14.66
2022-09-24T18:08:46.934Z,14.64
2022-09-24T18:11:17.307Z,14.62
2022-09-24T18:13:45.415Z,14.56
2022-09-24T18:16:14.802Z,14.62
2022-09-24T18:18:43.752Z,14.65
2022-09-24T18:21:13.399Z,14.69
2022-09-24T18:23:41.359Z,14.72
2022-09-24T18:26:12.145Z,14.73
2022-09-24T18:28:40.541Z,14.75
2022-09-24T18:31:09.853Z,14.75
2022-09-24T18:33:39.877Z,14.75
2022-09-24T18:36:10.023Z,14.78
2022-09-24T18:38:38.036Z,14.79
2022-09-24T18:41:08.817Z,14.81
2022-09-24T18:43:38.056Z,14.83
2022-09-24T18:46:07.746Z,14.79
2022-09-24T18:48:36.233Z,14.77
2022-09-24T18:51:05.240Z,14.76
2022-09-24T18:53:35.042Z,14.77
2022-09-24T18:56:06.747Z,14.79
2022-09-24T18:58:34.355Z,14.81
2022-09-24T19:01:07.732Z,14.78
2022-09-24T19:03:36.274Z,14.73
2022-09-24T19:06:06.801Z,14.78
2022-09-24T19:08:35.830Z,14.81
2022-09-24T19:11:09.235Z,14.80
2022-09-24T19:13:40.316Z,14.80
2022-09-24T19:16:12.697Z,14.81
2022-09-24T19:18:41.340Z,14.86
2022-09-24T19:21:11.982Z,14.87
2022-09-24T19:23:41.138Z,14.85
2022-09-24T19:26:10.125Z,14.87
2022-09-24T19:28:41.504Z,14.88
2022-09-24T19:31:16.502Z,14.91
2022-09-24T19:33:44.388Z,14.89
2022-09-24T19:36:13.092Z,14.86
2022-09-24T19:38:41.629Z,14.83
2022-09-24T19:41:13.340Z,14.79
2022-09-24T19:43:42.714Z,14.75
2022-09-24T19:46:11.998Z,14.72
2022-09-24T19:48:42.818Z,14.74
2022-09-24T19:51:14.022Z,14.71
2022-09-24T19:53:42.132Z,14.73
2022-09-24T19:56:14.069Z,14.77
2022-09-24T19:58:41.677Z,14.74
2022-09-24T20:01:12.468Z,14.70
2022-09-24T20:03:45.891Z,14.67
2022-09-24T20:06:15.129Z,14.64
2022-09-24T20:08:43.187Z,14.63
2022-09-24T20:11:15.984Z,14.65
2022-09-24T20:13:46.600Z,14.64
2022-09-24T20:16:16.136Z,14.68
2022-09-24T20:18:45.335Z,14.71
2022-09-24T20:21:13.279Z,14.73
2022-09-24T20:23:41.020Z,14.72
2022-09-24T20:26:28.181Z,14.71
2022-09-24T20:28:55.804Z,14.73
2022-09-24T20:31:23.980Z,14.75
2022-09-24T20:33:53.274Z,14.76
2022-09-24T20:36:24.324Z,14.76
2022-09-24T20:38:53.982Z,14.74
2022-09-24T20:41:23.728Z,14.74
2022-09-24T20:43:51.944Z,14.70
2022-09-24T20:46:24.060Z,14.70
2022-09-24T20:48:53.830Z,14.67
2022-09-24T20:51:22.516Z,14.63
2022-09-24T20:53:51.010Z,14.63
2022-09-24T20:56:19.219Z,14.64
2022-09-24T20:58:50.441Z,14.57
2022-09-24T21:01:18.583Z,14.58
2022-09-24T21:03:47.592Z,14.56
2022-09-24T21:06:17.860Z,14.56
2022-09-24T21:08:47.050Z,14.52
2022-09-24T21:11:18.027Z,14.52
2022-09-24T21:13:48.937Z,14.56
2022-09-24T21:16:19.628Z,14.58
2022-09-24T21:18:48.128Z,14.59
2022-09-24T21:21:19.137Z,14.63
2022-09-24T21:23:48.460Z,14.62
2022-09-24T21:26:18.957Z,14.62
2022-09-24T21:28:47.809Z,14.57
2022-09-24T21:31:16.266Z,14.57
2022-09-24T21:33:46.211Z,14.55
2022-09-24T21:36:18.561Z,14.56
2022-09-24T21:38:54.127Z,14.59
2022-09-24T21:41:22.580Z,14.54
2022-09-24T21:43:50.156Z,14.43
2022-09-24T21:46:17.820Z,14.41
2022-09-24T21:48:45.661Z,14.43
2022-09-24T21:51:21.138Z,14.45
2022-09-24T21:53:50.958Z,14.44
2022-09-24T21:56:19.116Z,14.39
2022-09-24T21:58:46.824Z,14.34
2022-09-24T22:01:17.455Z,14.28
2022-09-24T22:03:46.710Z,14.31
2022-09-24T22:06:15.035Z,14.35
2022-09-24T22:08:43.102Z,14.38
2022-09-24T22:11:13.488Z,14.42
2022-09-24T22:13:41.746Z,14.42
2022-09-24T22:16:11.484Z,14.40
2022-09-24T22:18:39.750Z,14.33
2022-09-24T22:21:09.831Z,14.35
2022-09-24T22:23:37.809Z,14.46
2022-09-24T22:26:05.643Z,14.58
2022-09-24T22:28:35.201Z,14.68
2022-09-24T22:31:06.738Z,14.68
2022-09-24T22:33:52.022Z,14.60
2022-09-24T22:36:20.230Z,14.61
2022-09-24T22:38:49.272Z,14.60
2022-09-24T22:41:16.850Z,14.58
2022-09-24T22:43:45.856Z,14.50
2022-09-24T22:46:16.375Z,14.47
2022-09-24T22:48:44.189Z,14.45
2022-09-24T22:51:11.882Z,14.45
2022-09-24T22:53:41.081Z,14.43
2022-09-24T22:56:10.809Z,14.35
2022-09-24T22:58:39.926Z,14.32
2022-09-24T23:01:10.565Z,14.35
2022-09-24T23:03:39.024Z,14.30
2022-09-24T23:06:08.826Z,14.29
2022-09-24T23:08:37.780Z,14.28
2022-09-24T23:11:08.171Z,14.18
2022-09-24T23:13:36.640Z,14.16
2022-09-24T23:16:10.347Z,14.21
2022-09-24T23:18:38.615Z,14.22
2022-09-24T23:21:07.385Z,14.24
2022-09-24T23:23:34.960Z,14.22
2022-09-24T23:26:04.867Z,14.25
2022-09-24T23:28:33.768Z,14.21
2022-09-24T23:31:02.219Z,14.21
2022-09-24T23:33:33.305Z,14.19
2022-09-24T23:36:01.425Z,14.17
2022-09-24T23:38:29.928Z,14.12
2022-09-24T23:40:58.689Z,14.16
2022-09-24T23:43:27.022Z,14.21
2022-09-24T23:45:55.519Z,14.20
2022-09-24T23:48:23.456Z,14.22
2022-09-24T23:50:52.488Z,14.15
2022-09-24T23:53:21.723Z,14.10
2022-09-24T23:55:50.158Z,14.03
2022-09-24T23:58:21.244Z,14.04
